Washington, Louisiana
Current Conditions -  °F | °C
As of 9:35 AM on Saturday 20 Dec 2014 (Local Time) from KOPL Reporting Station
Overcast Overcast  
Wind Chill: 42°   Ceiling: 400
Heat Index: 47°   Visibility: 10mi
Dew Point: 46°   Wind: 9mph
Humidity: 95%   Direction: 10°N
Pressure: 30.2"   Gusts: NA
Location:  30.62°N, 92.06°W
Report Text: KOPL 201535Z AUTO 01008KT 10SM OVC004 08/08 A3020 RMK AO2 T00820075
Loading
Personal Weather Stations






























Interactive Weather Map New forecast layout! Learn more

10-Day Weather Forecast

Advertisements
Track Severe Weather on mobile